createdAt,value
2023-01-25T00:00:36.087Z,25.00
2023-01-25T00:03:30.663Z,23.00
2023-01-25T00:06:03.393Z,23.20
2023-01-25T00:08:36.095Z,24.40
2023-01-25T00:11:08.497Z,24.00
2023-01-25T00:13:40.731Z,26.20
2023-01-25T00:16:13.193Z,24.00
2023-01-25T00:18:45.499Z,22.80
2023-01-25T00:21:19.339Z,22.40
2023-01-25T00:23:52.284Z,24.30
2023-01-25T00:26:24.862Z,23.90
2023-01-25T00:28:58.041Z,27.00
2023-01-25T00:31:42.177Z,29.40
2023-01-25T00:34:44.872Z,26.90
2023-01-25T00:37:26.536Z,24.80
2023-01-25T00:39:58.959Z,19.90
2023-01-25T00:42:31.288Z,22.90
2023-01-25T00:45:03.672Z,20.50
2023-01-25T00:47:35.992Z,21.90
2023-01-25T00:50:13.306Z,21.10
2023-01-25T00:52:45.774Z,20.60
2023-01-25T00:55:18.218Z,19.40
2023-01-25T00:57:50.620Z,21.30
2023-01-25T01:00:23.279Z,24.00
2023-01-25T01:02:56.778Z,23.70
2023-01-25T01:05:29.594Z,25.60
2023-01-25T01:08:02.165Z,25.20
2023-01-25T01:10:34.534Z,22.70
2023-01-25T01:13:06.834Z,22.50
2023-01-25T01:15:40.138Z,22.10
2023-01-25T01:18:12.583Z,23.70
2023-01-25T01:20:51.394Z,22.00
2023-01-25T01:23:24.010Z,23.60
2023-01-25T01:25:56.479Z,25.00
2023-01-25T01:28:28.970Z,23.60
2023-01-25T01:31:04.648Z,22.80
2023-01-25T01:33:39.829Z,23.40
2023-01-25T01:36:15.531Z,24.60
2023-01-25T01:38:47.936Z,30.50
2023-01-25T01:41:20.929Z,31.60
2023-01-25T01:43:53.792Z,25.30
2023-01-25T01:46:29.479Z,24.30
2023-01-25T01:49:05.923Z,24.30
2023-01-25T01:51:48.857Z,24.00
2023-01-25T01:54:28.791Z,24.90
2023-01-25T01:57:06.964Z,27.90
2023-01-25T01:59:45.530Z,24.40
2023-01-25T02:02:18.203Z,24.40
2023-01-25T02:04:53.011Z,24.80
2023-01-25T02:07:31.534Z,22.60
2023-01-25T02:10:06.548Z,26.30
2023-01-25T02:12:39.855Z,22.90
2023-01-25T02:15:15.863Z,21.10
2023-01-25T02:17:48.755Z,23.20
2023-01-25T02:20:27.893Z,24.40
2023-01-25T02:23:08.597Z,22.60
2023-01-25T02:25:41.434Z,24.50
2023-01-25T02:28:19.860Z,20.20
2023-01-25T02:30:52.337Z,19.10
2023-01-25T02:33:27.899Z,19.60
2023-01-25T02:36:16.705Z,21.10
2023-01-25T02:38:55.799Z,18.60
2023-01-25T02:41:39.494Z,21.80
2023-01-25T02:44:15.233Z,20.40
2023-01-25T02:46:48.088Z,19.70
2023-01-25T02:49:20.865Z,17.70
2023-01-25T02:51:57.544Z,19.30
2023-01-25T02:54:30.218Z,22.50
2023-01-25T02:57:02.674Z,21.20
2023-01-25T02:59:40.671Z,21.30
2023-01-25T03:02:13.208Z,21.30
2023-01-25T03:04:46.132Z,26.50
2023-01-25T03:07:18.679Z,22.80
2023-01-25T03:09:51.053Z,29.00
2023-01-25T03:12:24.705Z,20.50
2023-01-25T03:14:57.218Z,23.00
2023-01-25T03:17:31.309Z,20.90
2023-01-25T03:20:03.889Z,22.00
2023-01-25T03:22:36.983Z,22.70
2023-01-25T03:25:11.159Z,26.10
2023-01-25T03:27:44.725Z,28.10
2023-01-25T03:30:18.214Z,25.90
2023-01-25T03:32:50.883Z,28.40
2023-01-25T03:35:24.592Z,27.30
2023-01-25T03:37:57.334Z,27.50
2023-01-25T03:40:29.781Z,31.60
2023-01-25T03:43:02.166Z,30.50
2023-01-25T03:45:34.734Z,32.00
2023-01-25T03:48:07.905Z,32.10
2023-01-25T03:50:40.272Z,33.00
2023-01-25T03:53:27.145Z,30.20
2023-01-25T03:56:02.792Z,32.00
2023-01-25T03:58:37.311Z,30.30
2023-01-25T04:01:10.714Z,24.90
2023-01-25T04:03:43.448Z,27.80
2023-01-25T04:06:16.276Z,25.50
2023-01-25T04:08:49.243Z,31.30
2023-01-25T04:11:22.151Z,27.50
2023-01-25T04:13:54.649Z,26.80
2023-01-25T04:16:30.617Z,25.60
2023-01-25T04:19:17.489Z,40.50
2023-01-25T04:21:49.908Z,27.70
2023-01-25T04:24:23.172Z,26.30
2023-01-25T04:26:55.695Z,26.30
2023-01-25T04:29:40.036Z,25.90
2023-01-25T04:32:14.071Z,27.20
2023-01-25T04:34:46.760Z,27.80
2023-01-25T04:37:21.266Z,32.90
2023-01-25T04:40:03.013Z,30.40
2023-01-25T04:42:38.613Z,26.00
2023-01-25T04:45:12.671Z,26.00
2023-01-25T04:47:45.132Z,24.80
2023-01-25T04:50:17.752Z,23.70
2023-01-25T04:52:51.399Z,23.40
2023-01-25T04:55:24.658Z,25.90
2023-01-25T04:57:57.588Z,23.90
2023-01-25T05:00:30.461Z,23.30
2023-01-25T05:03:03.898Z,26.50
2023-01-25T05:05:37.761Z,23.30
2023-01-25T05:08:14.843Z,29.20
2023-01-25T05:10:47.427Z,30.10
2023-01-25T05:13:31.999Z,24.50
2023-01-25T05:16:13.213Z,25.50
2023-01-25T05:18:48.907Z,24.90
2023-01-25T05:21:45.502Z,28.90
2023-01-25T05:24:18.603Z,32.50
2023-01-25T05:27:04.616Z,75.70
2023-01-25T05:29:55.981Z,118.70
2023-01-25T05:32:33.136Z,51.20
2023-01-25T05:35:05.950Z,54.10
2023-01-25T05:37:38.736Z,53.70
2023-01-25T05:40:14.492Z,32.90
2023-01-25T05:42:46.867Z,27.70
2023-01-25T05:45:22.536Z,27.30
2023-01-25T05:47:57.714Z,27.10
2023-01-25T05:50:30.517Z,29.60
2023-01-25T05:53:15.365Z,29.20
2023-01-25T05:55:47.866Z,29.00
2023-01-25T05:58:21.390Z,28.50
2023-01-25T06:00:53.693Z,30.00
2023-01-25T06:03:32.930Z,27.30
2023-01-25T06:06:06.702Z,29.20
2023-01-25T06:08:40.213Z,29.90
2023-01-25T06:11:14.665Z,27.00
2023-01-25T06:13:50.868Z,25.30
2023-01-25T06:16:23.490Z,26.60
2023-01-25T06:19:13.967Z,29.70
2023-01-25T06:22:10.931Z,31.10
2023-01-25T06:24:43.352Z,41.50
2023-01-25T06:27:15.800Z,30.70
2023-01-25T06:29:48.264Z,25.30
2023-01-25T06:32:20.720Z,23.20
2023-01-25T06:34:53.420Z,25.20
2023-01-25T06:37:27.634Z,28.40
2023-01-25T06:39:59.963Z,28.90
2023-01-25T06:42:32.335Z,28.20
2023-01-25T06:45:04.674Z,30.30
2023-01-25T06:47:37.002Z,31.70
2023-01-25T06:50:12.697Z,30.80
2023-01-25T06:52:45.272Z,59.60
2023-01-25T06:55:17.947Z,113.60
2023-01-25T06:57:50.631Z,71.40
2023-01-25T07:00:23.558Z,79.10
2023-01-25T07:02:55.995Z,35.10
2023-01-25T07:05:28.420Z,27.90
2023-01-25T07:08:00.815Z,33.20
2023-01-25T07:15:24.557Z,36.60
2023-01-25T07:18:03.162Z,28.70
2023-01-25T07:20:40.664Z,30.40
2023-01-25T07:23:12.967Z,32.20
2023-01-25T07:25:48.706Z,30.90
2023-01-25T07:28:21.111Z,30.00
2023-01-25T07:30:53.607Z,27.20
2023-01-25T07:33:25.988Z,29.20
2023-01-25T07:36:02.664Z,65.80
2023-01-25T07:38:35.391Z,59.90
2023-01-25T07:41:07.969Z,41.20
2023-01-25T07:43:40.351Z,246.10
2023-01-25T07:46:17.351Z,502.60
2023-01-25T07:48:51.538Z,439.50
2023-01-25T07:51:25.233Z,67.00
2023-01-25T07:53:59.239Z,58.30
2023-01-25T07:56:34.024Z,179.90
2023-01-25T07:59:08.709Z,111.80
2023-01-25T08:01:42.128Z,66.00
2023-01-25T08:04:14.533Z,50.80
2023-01-25T08:06:48.003Z,37.00
2023-01-25T08:09:20.962Z,32.10
2023-01-25T08:11:53.756Z,28.50
2023-01-25T08:14:26.267Z,32.70
2023-01-25T08:16:58.710Z,34.90
2023-01-25T08:19:33.670Z,36.10
2023-01-25T08:22:08.192Z,42.90
2023-01-25T08:24:40.634Z,40.00
2023-01-25T08:27:13.126Z,38.20
2023-01-25T08:29:45.451Z,35.50
2023-01-25T08:32:17.799Z,37.90
2023-01-25T08:34:50.157Z,53.90
2023-01-25T08:37:22.585Z,53.00
2023-01-25T08:39:57.269Z,64.40
2023-01-25T08:42:29.747Z,56.80
2023-01-25T08:45:02.896Z,42.10
2023-01-25T08:47:35.330Z,39.90
2023-01-25T08:50:10.990Z,33.70
2023-01-25T08:52:43.498Z,29.90
2023-01-25T08:55:15.979Z,73.30
2023-01-25T08:57:50.471Z,185.90
2023-01-25T09:00:24.644Z,193.20
2023-01-25T09:02:57.000Z,304.50
2023-01-25T09:05:30.662Z,435.10
2023-01-25T09:08:03.274Z,206.50
2023-01-25T09:10:35.857Z,320.60
2023-01-25T09:13:08.870Z,194.80
2023-01-25T09:15:41.681Z,114.80
2023-01-25T09:18:14.849Z,121.00
2023-01-25T09:20:47.271Z,55.40
2023-01-25T09:23:23.869Z,63.40
2023-01-25T09:26:01.064Z,38.70
2023-01-25T09:28:34.553Z,38.10
2023-01-25T09:31:20.971Z,36.90
2023-01-25T09:34:08.750Z,34.30
2023-01-25T09:36:41.902Z,35.80
2023-01-25T09:39:14.657Z,37.40
2023-01-25T09:42:15.650Z,38.00
2023-01-25T09:44:59.708Z,36.10
2023-01-25T09:47:39.595Z,29.60
2023-01-25T09:50:30.507Z,43.20
2023-01-25T09:53:18.450Z,60.00
2023-01-25T09:55:58.894Z,40.00
2023-01-25T09:58:36.204Z,37.50
2023-01-25T10:01:37.567Z,41.50
2023-01-25T10:04:15.985Z,40.20
2023-01-25T10:07:00.245Z,41.30
2023-01-25T10:09:42.696Z,29.90
2023-01-25T10:12:21.826Z,32.10
2023-01-25T10:14:55.519Z,33.20
2023-01-25T10:17:34.921Z,31.10
2023-01-25T10:20:24.268Z,31.10
2023-01-25T10:23:21.003Z,45.50
2023-01-25T10:26:00.682Z,45.20
2023-01-25T10:28:44.869Z,71.40
2023-01-25T10:31:20.781Z,59.40
2023-01-25T10:33:54.726Z,40.90
2023-01-25T10:36:31.714Z,40.10
2023-01-25T10:39:07.596Z,47.50
2023-01-25T10:41:43.187Z,63.10
2023-01-25T10:44:25.681Z,57.80
2023-01-25T10:47:07.384Z,47.20
2023-01-25T10:49:44.173Z,33.00
2023-01-25T10:52:20.065Z,41.60
2023-01-25T10:55:16.869Z,39.90
2023-01-25T10:57:52.758Z,31.10
2023-01-25T11:00:30.806Z,29.80
2023-01-25T11:03:03.405Z,25.90
2023-01-25T11:05:38.040Z,27.20
2023-01-25T11:08:26.250Z,26.90
2023-01-25T11:11:00.554Z,24.90
2023-01-25T11:13:35.760Z,28.90
2023-01-25T11:18:55.541Z,42.80
2023-01-25T11:21:30.288Z,35.60
2023-01-25T11:24:05.668Z,30.10
2023-01-25T11:26:40.088Z,40.30
2023-01-25T11:29:17.465Z,116.60
2023-01-25T11:31:51.796Z,63.90
2023-01-25T11:34:28.574Z,49.50
2023-01-25T11:37:23.887Z,41.20
2023-01-25T11:40:09.141Z,32.50
2023-01-25T11:42:51.055Z,105.00
2023-01-25T11:46:01.678Z,57.50
2023-01-25T11:49:00.221Z,37.60
2023-01-25T11:51:42.594Z,28.90
2023-01-25T11:54:40.270Z,26.60
2023-01-25T11:57:28.627Z,45.40
2023-01-25T12:00:15.401Z,40.00
2023-01-25T12:03:22.681Z,22.10
2023-01-25T12:06:04.246Z,23.30
2023-01-25T12:08:57.863Z,22.40
2023-01-25T12:11:44.733Z,23.50
2023-01-25T12:14:29.359Z,21.30
2023-01-25T12:17:17.238Z,24.00
2023-01-25T12:20:07.162Z,22.00
2023-01-25T12:22:55.335Z,21.20
2023-01-25T12:25:37.398Z,24.70
2023-01-25T12:28:17.051Z,25.90
2023-01-25T12:30:55.950Z,158.70
2023-01-25T12:33:35.462Z,34.60
2023-01-25T12:36:14.904Z,31.30
2023-01-25T12:38:54.123Z,31.00
2023-01-25T12:41:34.662Z,29.00
2023-01-25T12:44:15.430Z,36.30
2023-01-25T12:46:53.388Z,54.70
2023-01-25T12:49:34.824Z,96.00
2023-01-25T12:52:17.034Z,34.60
2023-01-25T12:54:50.956Z,30.50
2023-01-25T12:57:29.654Z,48.20
2023-01-25T13:00:18.921Z,43.30
2023-01-25T13:03:12.283Z,29.10
2023-01-25T13:05:51.389Z,30.80
2023-01-25T13:08:35.972Z,38.90
2023-01-25T13:11:16.423Z,66.70
2023-01-25T13:13:48.920Z,63.10
2023-01-25T13:16:44.574Z,53.30
2023-01-25T13:19:41.932Z,44.50
2023-01-25T13:22:16.505Z,29.60
2023-01-25T13:25:22.263Z,28.10
2023-01-25T13:28:15.024Z,31.60
2023-01-25T13:30:56.028Z,23.50
2023-01-25T13:33:37.433Z,28.50
2023-01-25T13:36:46.560Z,28.80
2023-01-25T13:39:47.187Z,24.50
2023-01-25T13:42:23.811Z,27.60
2023-01-25T13:44:58.527Z,42.80
2023-01-25T13:47:37.925Z,78.60
2023-01-25T13:50:23.590Z,30.50
2023-01-25T13:53:03.803Z,32.60
2023-01-25T13:55:43.863Z,66.10
2023-01-25T13:58:20.719Z,52.00
2023-01-25T14:00:56.834Z,88.20
2023-01-25T14:03:32.096Z,88.90
2023-01-25T14:08:37.553Z,156.70
2023-01-25T14:11:10.690Z,67.00
2023-01-25T14:13:58.537Z,60.00
2023-01-25T14:16:32.353Z,83.30
2023-01-25T14:19:29.083Z,111.10
2023-01-25T14:22:23.449Z,96.00
2023-01-25T14:25:13.937Z,80.10
2023-01-25T14:27:48.534Z,119.80
2023-01-25T14:30:23.903Z,54.20
2023-01-25T14:32:58.405Z,44.90
2023-01-25T14:35:53.718Z,57.20
2023-01-25T14:38:30.804Z,92.10
2023-01-25T14:41:08.306Z,80.50
2023-01-25T14:43:45.437Z,77.10
2023-01-25T14:46:29.961Z,51.40
2023-01-25T14:49:26.657Z,69.30
2023-01-25T14:52:07.486Z,117.50
2023-01-25T14:54:48.920Z,47.10
2023-01-25T14:57:34.170Z,48.90
2023-01-25T15:00:18.568Z,58.40
2023-01-25T15:02:55.306Z,78.10
2023-01-25T15:05:29.421Z,157.00
2023-01-25T15:08:17.856Z,319.70
2023-01-25T15:10:58.331Z,259.30
2023-01-25T15:13:31.224Z,139.50
2023-01-25T15:16:05.957Z,104.30
2023-01-25T15:18:51.183Z,126.90
2023-01-25T15:21:28.488Z,65.60
2023-01-25T15:24:06.683Z,111.90
2023-01-25T15:26:39.484Z,96.00
2023-01-25T15:29:16.238Z,93.00
2023-01-25T15:31:49.442Z,75.90
2023-01-25T15:34:25.762Z,90.70
2023-01-25T15:36:58.029Z,102.20
2023-01-25T15:39:31.615Z,130.40
2023-01-25T15:42:04.025Z,282.20
2023-01-25T15:44:36.488Z,160.90
2023-01-25T15:47:11.142Z,178.90
2023-01-25T15:49:43.462Z,145.90
2023-01-25T15:52:15.943Z,112.20
2023-01-25T15:54:55.913Z,118.60
2023-01-25T15:57:35.963Z,106.90
2023-01-25T16:00:16.481Z,134.50
2023-01-25T16:02:49.340Z,125.10
2023-01-25T16:05:21.839Z,99.80
2023-01-25T16:07:54.192Z,84.40
2023-01-25T16:10:27.570Z,80.00
2023-01-25T16:13:00.028Z,85.60
2023-01-25T16:15:32.322Z,124.90
2023-01-25T16:18:04.784Z,77.10
2023-01-25T16:20:37.298Z,84.90
2023-01-25T16:23:10.254Z,97.80
2023-01-25T16:25:45.379Z,97.60
2023-01-25T16:28:18.600Z,106.00
2023-01-25T16:30:50.960Z,188.00
2023-01-25T16:33:25.000Z,134.70
2023-01-25T16:36:13.524Z,115.70
2023-01-25T16:38:46.261Z,121.60
2023-01-25T16:41:18.923Z,117.50
2023-01-25T16:43:53.663Z,121.90
2023-01-25T16:46:26.396Z,71.40
2023-01-25T16:49:00.234Z,77.10
2023-01-25T16:51:33.221Z,72.80
2023-01-25T16:54:05.836Z,62.90
2023-01-25T16:56:38.673Z,65.00
2023-01-25T16:59:12.339Z,56.80
2023-01-25T17:01:45.027Z,67.50
2023-01-25T17:04:17.772Z,74.70
2023-01-25T17:06:53.141Z,109.40
2023-01-25T17:09:25.832Z,91.10
2023-01-25T17:11:58.219Z,70.50
2023-01-25T17:14:30.650Z,83.30
2023-01-25T17:17:05.406Z,76.10
2023-01-25T17:19:37.789Z,68.10
2023-01-25T17:22:10.384Z,150.80
2023-01-25T17:24:42.789Z,202.10
2023-01-25T17:27:15.971Z,199.70
2023-01-25T17:29:48.383Z,292.40
2023-01-25T17:32:20.761Z,388.90
2023-01-25T17:34:53.853Z,225.40
2023-01-25T17:37:26.222Z,199.50
2023-01-25T17:39:58.650Z,191.10
2023-01-25T17:42:31.113Z,230.40
2023-01-25T17:45:03.469Z,151.50
2023-01-25T17:47:36.974Z,106.90
2023-01-25T17:50:12.722Z,90.30
2023-01-25T17:52:45.257Z,210.90
2023-01-25T17:55:17.766Z,177.60
2023-01-25T17:57:51.345Z,178.00
2023-01-25T18:00:25.215Z,187.60
2023-01-25T18:02:58.574Z,184.30
2023-01-25T18:05:31.124Z,83.90
2023-01-25T18:08:03.433Z,106.10
2023-01-25T18:10:35.823Z,118.00
2023-01-25T18:13:08.208Z,119.40
2023-01-25T18:15:40.542Z,129.20
2023-01-25T18:18:12.880Z,208.00
2023-01-25T18:20:45.247Z,237.80
2023-01-25T18:23:17.671Z,185.80
2023-01-25T18:25:50.567Z,160.00
2023-01-25T18:28:22.900Z,109.30
2023-01-25T18:31:00.690Z,247.20
2023-01-25T18:33:33.797Z,208.80
2023-01-25T18:36:07.135Z,193.90
2023-01-25T18:38:39.611Z,111.10
2023-01-25T18:41:12.184Z,80.20
2023-01-25T18:43:44.587Z,117.40
2023-01-25T18:46:17.151Z,83.50
2023-01-25T18:48:51.156Z,129.80
2023-01-25T18:51:23.729Z,101.10
2023-01-25T18:53:56.498Z,72.50
2023-01-25T18:56:29.463Z,63.60
2023-01-25T18:59:02.032Z,73.90
2023-01-25T19:01:34.481Z,103.40
2023-01-25T19:04:07.679Z,131.40
2023-01-25T19:06:40.130Z,82.50
2023-01-25T19:09:13.720Z,83.20
2023-01-25T19:11:46.168Z,83.10
2023-01-25T19:14:19.336Z,72.60
2023-01-25T19:16:52.397Z,86.80
2023-01-25T19:19:25.277Z,98.20
2023-01-25T19:21:57.731Z,79.20
2023-01-25T19:24:31.066Z,63.30
2023-01-25T19:27:09.455Z,66.00
2023-01-25T19:29:42.112Z,75.10
2023-01-25T19:32:14.661Z,62.00
2023-01-25T19:34:46.968Z,68.30
2023-01-25T19:37:19.480Z,112.90
2023-01-25T19:39:54.207Z,104.60
2023-01-25T19:42:28.523Z,75.80
2023-01-25T19:45:03.104Z,97.10
2023-01-25T19:47:35.596Z,103.70
2023-01-25T19:50:12.752Z,96.90
2023-01-25T19:52:45.263Z,78.20
2023-01-25T19:55:17.975Z,73.70
2023-01-25T19:57:50.584Z,79.40
2023-01-25T20:00:24.872Z,68.10
2023-01-25T20:03:07.226Z,70.60
2023-01-25T20:05:47.425Z,67.20
2023-01-25T20:08:19.770Z,48.60
2023-01-25T20:10:52.150Z,49.70
2023-01-25T20:13:24.576Z,53.30
2023-01-25T20:15:57.673Z,60.30
2023-01-25T20:18:31.263Z,63.30
2023-01-25T20:21:06.206Z,94.10
2023-01-25T20:23:40.454Z,168.30
2023-01-25T20:26:15.733Z,138.50
2023-01-25T20:28:51.667Z,94.50
2023-01-25T20:31:26.126Z,76.90
2023-01-25T20:34:00.710Z,79.20
2023-01-25T20:36:34.932Z,142.30
2023-01-25T20:39:08.958Z,77.40
2023-01-25T20:41:41.273Z,148.20
2023-01-25T20:44:15.731Z,201.00
2023-01-25T20:46:48.950Z,208.60
2023-01-25T20:49:21.498Z,276.50
2023-01-25T20:51:53.829Z,327.50
2023-01-25T20:54:26.482Z,636.80
2023-01-25T20:56:58.826Z,621.10
2023-01-25T20:59:31.270Z,413.60
2023-01-25T21:02:03.642Z,197.80
2023-01-25T21:04:36.128Z,565.60
2023-01-25T21:07:08.546Z,880.10
2023-01-25T21:09:42.849Z,387.00
2023-01-25T21:12:15.626Z,197.70
2023-01-25T21:14:48.553Z,59.70
2023-01-25T21:17:20.952Z,72.70
2023-01-25T21:19:53.339Z,93.00
2023-01-25T21:22:25.901Z,95.70
2023-01-25T21:24:58.443Z,83.10
2023-01-25T21:27:30.970Z,56.40
2023-01-25T21:30:03.767Z,54.20
2023-01-25T21:32:36.209Z,60.90
2023-01-25T21:35:10.644Z,72.10
2023-01-25T21:37:44.492Z,91.70
2023-01-25T21:40:20.611Z,67.30
2023-01-25T21:42:52.989Z,65.40
2023-01-25T21:45:42.999Z,50.10
2023-01-25T21:48:35.644Z,69.30
2023-01-25T21:51:29.965Z,89.10
2023-01-25T21:54:02.658Z,87.40
2023-01-25T21:56:35.086Z,64.20
2023-01-25T21:59:07.586Z,192.90
2023-01-25T22:01:40.480Z,73.10
2023-01-25T22:04:14.084Z,51.70
2023-01-25T22:06:48.773Z,57.10
2023-01-25T22:09:21.765Z,60.20
2023-01-25T22:11:55.936Z,49.10
2023-01-25T22:14:28.558Z,57.90
2023-01-25T22:17:02.307Z,64.10
2023-01-25T22:19:34.656Z,56.10
2023-01-25T22:22:06.986Z,60.20
2023-01-25T22:24:39.438Z,58.50
2023-01-25T22:27:32.757Z,61.30
2023-01-25T22:30:05.382Z,137.20
2023-01-25T22:32:37.825Z,125.60
2023-01-25T22:35:11.222Z,111.10
2023-01-25T22:37:43.535Z,129.60
2023-01-25T22:40:16.610Z,67.80
2023-01-25T22:42:49.004Z,56.80
2023-01-25T22:45:21.449Z,95.80
2023-01-25T22:47:53.904Z,61.10
2023-01-25T22:50:26.603Z,56.00
2023-01-25T22:52:58.968Z,50.80
2023-01-25T22:55:32.246Z,65.10
2023-01-25T22:58:04.623Z,58.90
2023-01-25T23:00:37.532Z,52.60
2023-01-25T23:03:10.305Z,55.30
2023-01-25T23:05:43.074Z,57.60
2023-01-25T23:08:15.462Z,59.70
2023-01-25T23:10:48.000Z,52.40
2023-01-25T23:13:20.331Z,68.80
2023-01-25T23:15:52.725Z,58.60
2023-01-25T23:18:42.999Z,56.70
2023-01-25T23:21:15.596Z,49.90
2023-01-25T23:23:48.128Z,52.50
2023-01-25T23:26:20.543Z,54.30
2023-01-25T23:28:54.545Z,59.30
2023-01-25T23:31:27.442Z,61.50
2023-01-25T23:34:02.450Z,56.70
2023-01-25T23:36:38.770Z,64.90
2023-01-25T23:39:15.309Z,77.60
2023-01-25T23:41:49.122Z,69.10
2023-01-25T23:44:21.820Z,60.00
2023-01-25T23:46:54.542Z,53.20
2023-01-25T23:49:26.953Z,106.20
2023-01-25T23:51:59.403Z,55.20
2023-01-25T23:54:32.134Z,52.00
2023-01-25T23:57:04.756Z,44.80
2023-01-25T23:59:37.603Z,46.40
